createdAt,value
2023-02-17T00:00:18.722Z,41.90
2023-02-17T00:02:45.366Z,41.55
2023-02-17T00:05:12.125Z,37.97
2023-02-17T00:07:39.324Z,43.17
2023-02-17T00:14:59.568Z,35.03
2023-02-17T00:17:26.184Z,36.95
2023-02-17T00:19:55.293Z,24.75
2023-02-17T00:22:21.830Z,27.35
2023-02-17T00:24:48.551Z,30.33
2023-02-17T00:27:15.170Z,26.33
2023-02-17T00:29:41.755Z,28.23
2023-02-17T00:32:10.396Z,32.17
2023-02-17T00:34:38.176Z,26.92
2023-02-17T00:37:05.094Z,27.83
2023-02-17T00:39:31.695Z,27.77
2023-02-17T00:41:58.350Z,21.45
2023-02-17T00:44:25.690Z,31.50
2023-02-17T00:46:52.623Z,27.85
2023-02-17T00:49:22.675Z,29.77
2023-02-17T00:51:50.339Z,30.33
2023-02-17T00:54:17.775Z,29.92
2023-02-17T00:56:44.809Z,29.20
2023-02-17T00:59:11.778Z,31.70
2023-02-17T01:01:39.342Z,34.45
2023-02-17T01:04:06.013Z,33.25
2023-02-17T01:06:35.537Z,31.05
2023-02-17T01:09:03.436Z,28.83
2023-02-17T01:11:32.961Z,30.27
2023-02-17T01:14:00.854Z,28.77
2023-02-17T01:16:33.660Z,31.13
2023-02-17T01:19:00.228Z,33.33
2023-02-17T01:21:28.944Z,31.48
2023-02-17T01:23:57.986Z,31.52
2023-02-17T01:26:28.107Z,32.70
2023-02-17T01:28:55.308Z,34.13
2023-02-17T01:33:49.692Z,30.30
2023-02-17T01:36:18.072Z,31.33
2023-02-17T01:38:46.494Z,28.60
2023-02-17T01:41:14.735Z,27.33
2023-02-17T01:43:41.923Z,26.38
2023-02-17T01:48:46.455Z,26.23
2023-02-17T01:51:24.199Z,28.67
2023-02-17T01:53:54.228Z,28.17
2023-02-17T01:56:22.882Z,32.17
2023-02-17T01:58:55.329Z,30.75
2023-02-17T02:01:22.058Z,30.98
2023-02-17T02:03:49.968Z,29.83
2023-02-17T02:06:20.750Z,29.70
2023-02-17T02:09:00.778Z,31.08
2023-02-17T02:11:27.504Z,31.60
2023-02-17T02:13:54.410Z,27.50
2023-02-17T02:16:30.187Z,30.27
2023-02-17T02:19:17.158Z,27.58
2023-02-17T02:22:21.908Z,27.23
2023-02-17T02:24:59.672Z,26.67
2023-02-17T02:27:38.116Z,26.33
2023-02-17T02:30:35.537Z,24.83
2023-02-17T02:33:13.777Z,26.27
2023-02-17T02:35:42.960Z,28.73
2023-02-17T02:38:15.330Z,27.67
2023-02-17T02:40:47.485Z,30.13
2023-02-17T02:43:14.850Z,26.80
2023-02-17T02:45:41.766Z,29.80
2023-02-17T02:48:08.661Z,28.67
2023-02-17T02:50:53.366Z,26.63
2023-02-17T02:53:40.145Z,31.25
2023-02-17T02:58:51.540Z,27.63
2023-02-17T03:01:37.190Z,29.75
2023-02-17T03:04:36.634Z,31.48
2023-02-17T03:07:21.490Z,29.60
2023-02-17T03:09:53.419Z,27.40
2023-02-17T03:12:21.228Z,40.05
2023-02-17T03:15:05.086Z,47.75
2023-02-17T03:17:32.819Z,56.40
2023-02-17T03:20:03.582Z,32.88
2023-02-17T03:22:35.346Z,28.73
2023-02-17T03:25:02.518Z,33.80
2023-02-17T03:29:55.760Z,34.28
2023-02-17T03:32:22.543Z,31.40
2023-02-17T03:34:49.316Z,37.17
2023-02-17T03:37:15.875Z,30.02
2023-02-17T03:39:42.730Z,30.00
2023-02-17T03:42:09.255Z,29.75
2023-02-17T03:44:35.924Z,27.45
2023-02-17T03:47:02.498Z,34.45
2023-02-17T03:49:29.162Z,37.67
2023-02-17T03:51:55.779Z,35.78
2023-02-17T03:54:22.300Z,35.83
2023-02-17T03:56:48.848Z,41.40
2023-02-17T03:59:15.438Z,53.80
2023-02-17T04:01:42.213Z,53.15
2023-02-17T04:04:08.858Z,52.80
2023-02-17T04:06:35.693Z,36.78
2023-02-17T04:09:02.431Z,37.72
2023-02-17T04:11:29.149Z,36.20
2023-02-17T04:13:55.778Z,39.88
2023-02-17T04:16:22.387Z,47.65
2023-02-17T04:18:49.005Z,44.85
2023-02-17T04:21:15.626Z,46.85
2023-02-17T04:23:42.258Z,36.67
2023-02-17T04:26:09.213Z,33.75
2023-02-17T04:28:39.379Z,29.88
2023-02-17T04:31:06.414Z,33.22
2023-02-17T04:38:28.163Z,43.95
2023-02-17T04:40:56.420Z,52.15
2023-02-17T04:43:24.003Z,47.33
2023-02-17T04:45:50.619Z,57.38
2023-02-17T04:48:18.257Z,55.10
2023-02-17T04:50:44.842Z,54.85
2023-02-17T04:53:12.073Z,52.97
2023-02-17T04:58:05.074Z,70.97
2023-02-17T05:00:31.927Z,103.45
2023-02-17T05:02:58.534Z,92.18
2023-02-17T05:05:25.112Z,76.22
2023-02-17T05:07:51.754Z,88.75
2023-02-17T05:10:19.420Z,84.60
2023-02-17T05:12:46.357Z,80.75
2023-02-17T05:15:13.509Z,59.45
2023-02-17T05:20:08.011Z,90.05
2023-02-17T05:22:34.653Z,80.30
2023-02-17T05:25:01.193Z,82.20
2023-02-17T05:27:27.874Z,64.55
2023-02-17T05:29:54.596Z,64.05
2023-02-17T05:32:23.251Z,76.75
2023-02-17T05:34:49.913Z,82.88
2023-02-17T05:37:16.528Z,82.05
2023-02-17T05:39:43.069Z,63.80
2023-02-17T05:42:09.669Z,57.63
2023-02-17T05:44:36.201Z,56.90
2023-02-17T05:47:03.049Z,62.30
2023-02-17T05:49:29.713Z,61.35
2023-02-17T05:51:56.251Z,65.68
2023-02-17T05:54:22.778Z,73.63
2023-02-17T05:56:49.306Z,73.47
2023-02-17T05:59:15.889Z,59.47
2023-02-17T06:01:42.403Z,60.80
2023-02-17T06:04:08.985Z,39.55
2023-02-17T06:06:35.576Z,68.55
2023-02-17T06:09:02.230Z,64.90
2023-02-17T06:11:28.871Z,77.72
2023-02-17T06:13:55.491Z,70.93
2023-02-17T06:16:22.101Z,66.32
2023-02-17T06:18:48.718Z,67.95
2023-02-17T06:21:15.309Z,78.90
2023-02-17T06:23:41.933Z,73.43
2023-02-17T06:26:08.754Z,69.28
2023-02-17T06:28:35.522Z,69.88
2023-02-17T06:31:02.259Z,66.43
2023-02-17T06:33:28.914Z,75.05
2023-02-17T06:35:55.446Z,84.47
2023-02-17T06:38:22.058Z,133.73
2023-02-17T06:40:48.648Z,112.50
2023-02-17T06:43:15.246Z,111.72
2023-02-17T06:45:42.065Z,207.38
2023-02-17T06:48:08.710Z,210.32
2023-02-17T06:50:35.857Z,146.48
2023-02-17T06:53:02.483Z,110.90
2023-02-17T06:55:29.097Z,104.97
2023-02-17T06:57:55.682Z,80.60
2023-02-17T07:00:23.265Z,69.80
2023-02-17T07:02:49.883Z,58.55
2023-02-17T07:05:16.761Z,58.25
2023-02-17T07:07:43.312Z,57.88
2023-02-17T07:10:10.792Z,53.60
2023-02-17T07:12:37.590Z,53.67
2023-02-17T07:15:04.716Z,65.72
2023-02-17T07:17:31.425Z,53.35
2023-02-17T07:19:58.003Z,53.85
2023-02-17T07:22:26.232Z,47.88
2023-02-17T07:24:52.811Z,52.25
2023-02-17T07:27:19.376Z,37.85
2023-02-17T07:29:45.949Z,53.05
2023-02-17T07:32:12.482Z,49.75
2023-02-17T07:34:39.143Z,48.47
2023-02-17T07:37:05.706Z,49.55
2023-02-17T07:39:32.383Z,54.25
2023-02-17T07:42:01.041Z,48.28
2023-02-17T07:44:28.403Z,54.75
2023-02-17T07:49:21.490Z,60.35
2023-02-17T07:51:48.099Z,42.38
2023-02-17T07:54:15.115Z,36.65
2023-02-17T07:56:42.108Z,46.10
2023-02-17T07:59:12.052Z,44.22
2023-02-17T08:01:39.124Z,50.25
2023-02-17T08:04:05.897Z,49.35
2023-02-17T08:06:32.660Z,32.28
2023-02-17T08:09:17.559Z,47.15
2023-02-17T08:12:02.647Z,42.13
2023-02-17T08:14:31.427Z,44.15
2023-02-17T08:16:58.621Z,38.97
2023-02-17T08:19:28.331Z,43.17
2023-02-17T08:21:56.787Z,36.92
2023-02-17T08:24:24.755Z,38.67
2023-02-17T08:26:51.936Z,38.50
2023-02-17T08:29:20.385Z,32.53
2023-02-17T08:31:47.364Z,32.67
2023-02-17T08:34:14.555Z,32.88
2023-02-17T08:36:41.417Z,33.10
2023-02-17T08:39:12.097Z,32.33
2023-02-17T08:41:39.498Z,31.40
2023-02-17T08:46:44.065Z,33.08
2023-02-17T08:49:10.854Z,33.25
2023-02-17T08:51:38.627Z,31.98
2023-02-17T08:54:07.559Z,33.45
2023-02-17T08:56:35.062Z,37.15
2023-02-17T08:59:02.313Z,29.38
2023-02-17T09:01:29.358Z,36.50
2023-02-17T09:03:58.560Z,42.40
2023-02-17T09:06:34.277Z,25.67
2023-02-17T09:09:01.408Z,30.00
2023-02-17T09:11:28.031Z,27.35
2023-02-17T09:13:54.554Z,37.33
2023-02-17T09:16:24.189Z,33.73
2023-02-17T09:18:52.854Z,26.67
2023-02-17T09:21:20.400Z,29.95
2023-02-17T09:23:47.785Z,25.35
2023-02-17T09:28:42.267Z,29.27
2023-02-17T09:31:20.893Z,28.35
2023-02-17T09:33:49.120Z,26.52
2023-02-17T09:36:20.994Z,43.95
2023-02-17T09:38:48.662Z,25.13
2023-02-17T09:41:15.200Z,30.40
2023-02-17T09:43:42.111Z,24.37
2023-02-17T09:46:19.212Z,25.27
2023-02-17T09:51:38.042Z,30.58
2023-02-17T09:54:19.921Z,36.25
2023-02-17T09:56:50.608Z,27.55
2023-02-17T09:59:24.714Z,39.17
2023-02-17T10:01:53.880Z,36.53
2023-02-17T10:04:28.351Z,44.05
2023-02-17T10:07:14.920Z,49.30
2023-02-17T10:09:54.032Z,42.13
2023-02-17T10:12:26.042Z,41.42
2023-02-17T10:14:58.176Z,52.15
2023-02-17T10:17:37.833Z,38.40
2023-02-17T10:20:11.172Z,38.22
2023-02-17T10:22:39.923Z,46.03
2023-02-17T10:25:18.886Z,94.78
2023-02-17T10:28:26.675Z,36.42
2023-02-17T10:31:04.940Z,36.35
2023-02-17T10:33:37.469Z,39.58
2023-02-17T10:36:30.535Z,32.95
2023-02-17T10:39:09.716Z,35.35
2023-02-17T10:41:38.773Z,36.50
2023-02-17T10:44:15.369Z,35.75
2023-02-17T10:46:43.460Z,32.47
2023-02-17T10:49:22.468Z,34.15
2023-02-17T10:51:48.994Z,30.02
2023-02-17T10:54:35.757Z,41.47
2023-02-17T10:57:05.122Z,34.78
2023-02-17T10:59:39.344Z,47.08
2023-02-17T11:02:33.639Z,33.05
2023-02-17T11:05:00.249Z,31.00
2023-02-17T11:07:40.004Z,31.83
2023-02-17T11:10:24.551Z,32.20
2023-02-17T11:12:52.124Z,32.50
2023-02-17T11:15:21.975Z,35.05
2023-02-17T11:17:49.270Z,29.88
2023-02-17T11:20:16.100Z,26.35
2023-02-17T11:23:22.019Z,30.50
2023-02-17T11:26:02.971Z,29.20
2023-02-17T11:28:29.709Z,26.35
2023-02-17T11:30:59.258Z,35.00
2023-02-17T11:33:38.431Z,24.80
2023-02-17T11:36:07.542Z,29.67
2023-02-17T11:38:39.861Z,28.65
2023-02-17T11:41:07.637Z,28.48
2023-02-17T11:43:35.873Z,29.17
2023-02-17T11:46:53.312Z,28.58
2023-02-17T11:49:37.783Z,27.42
2023-02-17T11:52:26.753Z,27.23
2023-02-17T11:55:14.821Z,29.75
2023-02-17T11:57:53.892Z,25.75
2023-02-17T12:00:20.639Z,24.75
2023-02-17T12:03:21.354Z,27.92
2023-02-17T12:06:00.062Z,23.60
2023-02-17T12:08:51.282Z,28.10
2023-02-17T12:11:33.494Z,23.75
2023-02-17T12:14:18.369Z,23.35
2023-02-17T12:17:13.720Z,20.02
2023-02-17T12:19:58.881Z,17.88
2023-02-17T12:22:30.845Z,30.35
2023-02-17T12:24:57.403Z,21.30
2023-02-17T12:27:48.907Z,24.87
2023-02-17T12:30:27.688Z,22.15
2023-02-17T12:33:14.805Z,21.52
2023-02-17T12:38:30.835Z,16.80
2023-02-17T12:41:11.797Z,19.48
2023-02-17T12:43:47.992Z,16.95
2023-02-17T12:48:55.778Z,17.92
2023-02-17T12:51:22.348Z,18.13
2023-02-17T12:53:57.625Z,20.17
2023-02-17T12:56:31.246Z,18.25
2023-02-17T12:59:17.398Z,14.80
2023-02-17T13:01:55.533Z,16.23
2023-02-17T13:04:25.067Z,16.45
2023-02-17T13:06:59.762Z,14.00
2023-02-17T13:09:37.468Z,18.38
2023-02-17T13:12:22.199Z,12.30
2023-02-17T13:14:52.647Z,14.18
2023-02-17T13:17:40.715Z,14.55
2023-02-17T13:20:24.492Z,13.25
2023-02-17T13:22:51.231Z,17.60
2023-02-17T13:25:34.989Z,12.60
2023-02-17T13:28:16.011Z,15.70
2023-02-17T13:30:45.165Z,17.08
2023-02-17T13:33:20.777Z,18.65
2023-02-17T13:35:48.100Z,18.95
2023-02-17T13:40:52.202Z,13.60
2023-02-17T13:43:19.954Z,14.32
2023-02-17T13:46:01.450Z,24.50
2023-02-17T13:48:35.937Z,11.20
2023-02-17T13:51:06.580Z,15.98
2023-02-17T13:53:39.103Z,15.35
2023-02-17T13:56:11.116Z,19.50
2023-02-17T13:58:40.710Z,23.27
2023-02-17T14:01:14.999Z,46.50
2023-02-17T14:03:46.777Z,14.68
2023-02-17T14:06:27.334Z,11.60
2023-02-17T14:08:54.544Z,16.13
2023-02-17T14:11:24.996Z,29.20
2023-02-17T14:13:54.613Z,19.73
2023-02-17T14:16:37.249Z,247.77
2023-02-17T14:19:06.307Z,23.80
2023-02-17T14:21:33.841Z,22.08
2023-02-17T14:24:00.612Z,25.45
2023-02-17T14:26:46.807Z,23.85
2023-02-17T14:29:14.839Z,18.55
2023-02-17T14:31:41.499Z,21.30
2023-02-17T14:34:14.535Z,21.02
2023-02-17T14:36:41.240Z,22.85
2023-02-17T14:39:13.116Z,21.52
2023-02-17T14:41:39.632Z,22.85
2023-02-17T14:44:06.241Z,20.17
2023-02-17T14:46:33.673Z,21.17
2023-02-17T14:49:00.453Z,18.77
2023-02-17T14:51:33.937Z,25.83
2023-02-17T14:54:10.831Z,34.10
2023-02-17T14:56:41.841Z,29.00
2023-02-17T14:59:10.174Z,17.67
2023-02-17T15:01:36.766Z,17.98
2023-02-17T15:04:03.360Z,19.70
2023-02-17T15:06:43.498Z,19.75
2023-02-17T15:09:13.653Z,17.92
2023-02-17T15:11:42.467Z,14.75
2023-02-17T15:14:14.937Z,12.73
2023-02-17T15:16:41.654Z,28.02
2023-02-17T15:19:10.131Z,39.97
2023-02-17T15:21:39.141Z,21.40
2023-02-17T15:24:35.418Z,25.10
2023-02-17T15:27:03.836Z,11.27
2023-02-17T15:29:30.555Z,23.48
2023-02-17T15:32:01.623Z,33.42
2023-02-17T15:34:32.472Z,24.85
2023-02-17T15:37:00.304Z,18.80
2023-02-17T15:39:27.736Z,21.55
2023-02-17T15:44:26.077Z,88.22
2023-02-17T15:46:55.214Z,31.42
2023-02-17T15:49:22.394Z,21.00
2023-02-17T15:51:49.083Z,71.15
2023-02-17T15:54:19.259Z,20.55
2023-02-17T15:56:52.120Z,21.83
2023-02-17T15:59:24.791Z,12.32
2023-02-17T16:01:51.797Z,14.68
2023-02-17T16:04:18.736Z,12.07
2023-02-17T16:06:45.373Z,15.18
2023-02-17T16:09:12.174Z,13.75
2023-02-17T16:11:51.718Z,13.80
2023-02-17T16:14:27.271Z,15.65
2023-02-17T16:16:54.126Z,13.10
2023-02-17T16:19:20.698Z,14.23
2023-02-17T16:21:47.301Z,13.05
2023-02-17T16:24:13.842Z,14.93
2023-02-17T16:26:42.292Z,8.33
2023-02-17T16:29:17.153Z,15.85
2023-02-17T16:31:44.320Z,11.18
2023-02-17T16:34:21.007Z,9.02
2023-02-17T16:36:49.308Z,9.57
2023-02-17T16:39:18.478Z,12.70
2023-02-17T16:41:45.048Z,15.73
2023-02-17T16:44:18.998Z,18.52
2023-02-17T16:46:51.206Z,20.70
2023-02-17T16:49:31.998Z,25.55
2023-02-17T16:52:00.160Z,25.20
2023-02-17T16:54:26.813Z,28.80
2023-02-17T16:56:53.869Z,15.60
2023-02-17T16:59:23.124Z,14.93
2023-02-17T17:01:51.185Z,15.43
2023-02-17T17:04:17.767Z,15.18
2023-02-17T17:06:47.421Z,14.60
2023-02-17T17:09:21.261Z,14.55
2023-02-17T17:11:48.510Z,23.73
2023-02-17T17:14:15.517Z,17.38
2023-02-17T17:16:48.999Z,14.80
2023-02-17T17:19:15.643Z,15.48
2023-02-17T17:21:42.184Z,10.27
2023-02-17T17:24:08.814Z,16.73
2023-02-17T17:26:43.902Z,19.83
2023-02-17T17:29:13.292Z,19.00
2023-02-17T17:31:40.396Z,24.55
2023-02-17T17:34:07.421Z,15.93
2023-02-17T17:36:43.415Z,22.02
2023-02-17T17:39:19.528Z,10.48
2023-02-17T17:41:46.453Z,12.05
2023-02-17T17:44:13.574Z,10.68
2023-02-17T17:46:40.336Z,17.40
2023-02-17T17:49:10.326Z,17.10
2023-02-17T17:51:39.010Z,16.00
2023-02-17T17:54:06.268Z,12.88
2023-02-17T17:56:36.403Z,15.15
2023-02-17T17:59:04.672Z,15.35
2023-02-17T18:01:31.426Z,12.05
2023-02-17T18:04:00.202Z,16.73
2023-02-17T18:06:40.038Z,12.77
2023-02-17T18:09:09.485Z,14.95
2023-02-17T18:11:37.760Z,17.08
2023-02-17T18:14:10.603Z,21.58
2023-02-17T18:16:39.718Z,16.25
2023-02-17T18:19:08.283Z,14.50
2023-02-17T18:21:39.857Z,14.90
2023-02-17T18:24:07.165Z,18.00
2023-02-17T18:29:00.797Z,23.30
2023-02-17T18:31:29.597Z,17.25
2023-02-17T18:33:56.413Z,21.08
2023-02-17T18:36:25.717Z,14.50
2023-02-17T18:38:52.491Z,15.75
2023-02-17T18:41:20.674Z,13.98
2023-02-17T18:43:48.201Z,16.17
2023-02-17T18:46:14.966Z,13.00
2023-02-17T18:48:41.991Z,11.77
2023-02-17T18:51:14.614Z,12.45
2023-02-17T18:53:41.839Z,13.30
2023-02-17T18:56:16.528Z,13.18
2023-02-17T18:58:43.103Z,15.57
2023-02-17T19:01:43.390Z,16.60
2023-02-17T19:04:11.839Z,11.73
2023-02-17T19:06:39.150Z,15.65
2023-02-17T19:11:33.753Z,15.82
2023-02-17T19:14:01.612Z,16.42
2023-02-17T19:16:29.971Z,21.73
2023-02-17T19:18:57.722Z,11.13
2023-02-17T19:21:24.900Z,19.92
2023-02-17T19:23:51.988Z,12.90
2023-02-17T19:26:19.922Z,15.10
2023-02-17T19:28:46.772Z,14.90
2023-02-17T19:31:16.999Z,15.43
2023-02-17T19:33:45.714Z,13.48
2023-02-17T19:36:15.375Z,16.00
2023-02-17T19:38:42.584Z,12.85
2023-02-17T19:41:10.712Z,16.92
2023-02-17T19:43:37.288Z,15.60
2023-02-17T19:46:04.359Z,15.25
2023-02-17T19:48:31.113Z,13.57
2023-02-17T19:51:07.434Z,13.32
2023-02-17T19:53:34.967Z,14.05
2023-02-17T19:56:12.134Z,19.50
2023-02-17T19:58:38.944Z,19.52
2023-02-17T20:01:11.118Z,12.93
2023-02-17T20:03:38.066Z,15.02
2023-02-17T20:06:10.362Z,14.02
2023-02-17T20:08:38.158Z,14.50
2023-02-17T20:11:09.242Z,12.60
2023-02-17T20:13:45.602Z,14.93
2023-02-17T20:16:14.054Z,12.95
2023-02-17T20:18:43.055Z,13.57
2023-02-17T20:21:11.409Z,12.77
2023-02-17T20:23:38.087Z,15.85
2023-02-17T20:26:10.601Z,16.58
2023-02-17T20:28:38.006Z,12.25
2023-02-17T20:31:05.659Z,12.35
2023-02-17T20:33:32.544Z,13.45
2023-02-17T20:35:59.302Z,15.30
2023-02-17T20:38:25.901Z,14.88
2023-02-17T20:40:52.487Z,14.25
2023-02-17T20:43:20.285Z,16.48
2023-02-17T20:45:49.521Z,19.17
2023-02-17T20:48:16.705Z,15.43
2023-02-17T20:50:44.252Z,12.20
2023-02-17T20:53:11.279Z,13.40
2023-02-17T20:55:38.028Z,15.55
2023-02-17T20:58:04.670Z,10.90
2023-02-17T21:00:31.548Z,15.07
2023-02-17T21:02:58.103Z,13.88
2023-02-17T21:05:25.082Z,13.02
2023-02-17T21:07:51.672Z,13.75
2023-02-17T21:10:21.229Z,13.73
2023-02-17T21:12:48.231Z,16.02
2023-02-17T21:20:10.815Z,14.63
2023-02-17T21:22:37.460Z,14.63
2023-02-17T21:25:04.375Z,9.43
2023-02-17T21:27:31.562Z,13.70
2023-02-17T21:29:58.183Z,19.88
2023-02-17T21:32:24.939Z,13.75
2023-02-17T21:34:51.499Z,16.95
2023-02-17T21:37:18.469Z,13.38
2023-02-17T21:39:45.142Z,24.48
2023-02-17T21:42:11.758Z,23.13
2023-02-17T21:44:53.656Z,18.98
2023-02-17T21:47:20.777Z,27.90
2023-02-17T21:49:47.911Z,36.10
2023-02-17T21:52:14.879Z,25.23
2023-02-17T21:54:41.519Z,23.50
2023-02-17T21:57:08.146Z,25.20
2023-02-17T21:59:35.064Z,16.45
2023-02-17T22:02:01.603Z,23.83
2023-02-17T22:04:28.386Z,28.05
2023-02-17T22:06:55.004Z,38.50
2023-02-17T22:09:21.619Z,17.70
2023-02-17T22:11:49.568Z,19.02
2023-02-17T22:14:20.505Z,14.73
2023-02-17T22:16:48.747Z,16.70
2023-02-17T22:19:18.291Z,17.63
2023-02-17T22:21:45.540Z,16.52
2023-02-17T22:29:05.925Z,12.57
2023-02-17T22:31:33.636Z,14.55
2023-02-17T22:34:03.583Z,13.65
2023-02-17T22:36:33.159Z,18.00
2023-02-17T22:39:01.928Z,17.42
2023-02-17T22:41:28.550Z,13.75
2023-02-17T22:43:55.322Z,14.55
2023-02-17T22:46:23.960Z,19.33
2023-02-17T22:48:52.104Z,17.27
2023-02-17T22:51:24.896Z,17.20
2023-02-17T22:53:51.882Z,20.25
2023-02-17T22:56:18.478Z,15.60
2023-02-17T22:58:45.120Z,19.80
2023-02-17T23:01:20.817Z,19.45
2023-02-17T23:03:52.952Z,22.45
2023-02-17T23:06:28.656Z,21.02
2023-02-17T23:08:55.567Z,21.52
2023-02-17T23:11:43.836Z,17.80
2023-02-17T23:14:11.939Z,19.40
2023-02-17T23:16:39.344Z,19.88
2023-02-17T23:19:08.587Z,19.23
2023-02-17T23:21:35.686Z,15.27
2023-02-17T23:24:02.977Z,14.80
2023-02-17T23:28:56.234Z,16.02
2023-02-17T23:31:22.942Z,13.35
2023-02-17T23:33:49.527Z,16.75
2023-02-17T23:36:16.881Z,18.67
2023-02-17T23:38:43.483Z,14.43
2023-02-17T23:41:11.379Z,13.35
2023-02-17T23:43:37.967Z,13.68
2023-02-17T23:46:04.999Z,13.30
2023-02-17T23:48:31.559Z,13.98
2023-02-17T23:51:00.120Z,10.88
2023-02-17T23:53:27.642Z,14.88
2023-02-17T23:56:09.312Z,15.30
2023-02-17T23:58:36.044Z,14.95
